createdAt,value
2023-08-16T00:01:51.671Z,1.13
2023-08-16T00:04:19.028Z,2.03
2023-08-16T00:06:46.588Z,2.63
2023-08-16T00:09:14.325Z,2.00
2023-08-16T00:11:41.575Z,1.97
2023-08-16T00:14:09.561Z,1.47
2023-08-16T00:16:36.769Z,2.10
2023-08-16T00:19:04.383Z,2.07
2023-08-16T00:21:31.607Z,1.97
2023-08-16T00:23:58.972Z,1.50
2023-08-16T00:26:26.304Z,1.37
2023-08-16T00:28:54.790Z,1.80
2023-08-16T00:31:22.272Z,3.07
2023-08-16T00:33:49.524Z,1.27
2023-08-16T00:36:17.475Z,2.77
2023-08-16T00:38:44.774Z,2.37
2023-08-16T00:41:12.931Z,1.23
2023-08-16T00:43:40.408Z,2.00
2023-08-16T00:46:09.641Z,1.90
2023-08-16T00:48:38.646Z,1.27
2023-08-16T00:51:05.971Z,1.63
2023-08-16T00:53:34.072Z,1.90
2023-08-16T00:56:01.421Z,2.27
2023-08-16T00:58:28.877Z,0.97
2023-08-16T01:00:56.215Z,1.00
2023-08-16T01:03:24.285Z,1.33
2023-08-16T01:05:51.771Z,2.50
2023-08-16T01:08:19.626Z,1.70
2023-08-16T01:10:49.618Z,1.97
2023-08-16T01:13:24.426Z,1.87
2023-08-16T01:15:52.130Z,1.83
2023-08-16T01:18:19.625Z,1.90
2023-08-16T01:20:49.086Z,2.37
2023-08-16T01:23:22.750Z,2.30
2023-08-16T01:25:53.286Z,2.27
2023-08-16T01:28:20.816Z,1.80
2023-08-16T01:30:48.414Z,0.83
2023-08-16T01:33:15.911Z,2.60
2023-08-16T01:35:43.431Z,1.67
2023-08-16T01:38:14.630Z,2.20
2023-08-16T01:40:46.666Z,1.67
2023-08-16T01:43:15.234Z,3.13
2023-08-16T01:45:42.853Z,1.20
2023-08-16T01:48:10.750Z,1.60
2023-08-16T01:50:38.248Z,1.80
2023-08-16T01:53:06.034Z,2.10
2023-08-16T01:55:33.199Z,2.23
2023-08-16T01:58:00.582Z,1.60
2023-08-16T02:00:28.163Z,1.73
2023-08-16T02:02:55.396Z,2.80
2023-08-16T02:05:23.020Z,1.93
2023-08-16T02:07:50.225Z,1.30
2023-08-16T02:10:17.402Z,2.13
2023-08-16T02:12:44.947Z,2.00
2023-08-16T02:15:12.894Z,1.60
2023-08-16T02:17:40.113Z,1.80
2023-08-16T02:20:09.665Z,1.80
2023-08-16T02:22:42.827Z,1.40
2023-08-16T02:25:10.860Z,2.57
2023-08-16T02:27:38.035Z,2.40
2023-08-16T02:30:05.776Z,2.07
2023-08-16T02:32:34.522Z,1.73
2023-08-16T02:35:01.779Z,1.60
2023-08-16T02:37:28.952Z,1.57
2023-08-16T02:39:56.232Z,2.70
2023-08-16T02:42:23.403Z,1.80
2023-08-16T02:44:51.136Z,1.47
2023-08-16T02:47:18.286Z,1.43
2023-08-16T02:49:46.006Z,2.00
2023-08-16T02:52:13.735Z,1.50
2023-08-16T02:54:41.685Z,1.90
2023-08-16T02:57:08.937Z,2.23
2023-08-16T02:59:42.772Z,1.60
2023-08-16T03:02:10.196Z,1.50
2023-08-16T03:04:41.047Z,1.93
2023-08-16T03:07:08.745Z,2.27
2023-08-16T03:09:36.419Z,2.07
2023-08-16T03:12:04.176Z,1.97
2023-08-16T03:14:31.908Z,2.43
2023-08-16T03:16:59.435Z,1.23
2023-08-16T03:19:27.104Z,1.80
2023-08-16T03:21:56.714Z,2.07
2023-08-16T03:24:24.068Z,1.53
2023-08-16T03:26:51.914Z,3.07
2023-08-16T03:29:19.774Z,1.93
2023-08-16T03:31:47.675Z,1.70
2023-08-16T03:34:15.798Z,1.27
2023-08-16T03:36:43.423Z,2.13
2023-08-16T03:39:10.755Z,2.10
2023-08-16T03:41:38.681Z,1.93
2023-08-16T03:44:09.477Z,2.13
2023-08-16T03:46:36.830Z,1.40
2023-08-16T03:49:04.692Z,1.10
2023-08-16T03:51:32.430Z,2.70
2023-08-16T03:54:00.032Z,1.73
2023-08-16T03:56:27.536Z,6.47
2023-08-16T03:58:55.085Z,2.67
2023-08-16T04:01:24.006Z,3.40
2023-08-16T04:03:51.732Z,4.00
2023-08-16T04:06:21.849Z,3.93
2023-08-16T04:08:49.177Z,3.70
2023-08-16T04:11:17.096Z,3.80
2023-08-16T04:13:44.464Z,3.10
2023-08-16T04:16:11.716Z,3.40
2023-08-16T04:18:39.415Z,3.30
2023-08-16T04:21:06.665Z,3.83
2023-08-16T04:23:34.073Z,5.40
2023-08-16T04:26:02.670Z,5.20
2023-08-16T04:28:30.818Z,3.83
2023-08-16T04:31:01.063Z,4.63
2023-08-16T04:33:29.644Z,3.80
2023-08-16T04:35:57.459Z,3.90
2023-08-16T04:38:25.084Z,6.50
2023-08-16T04:40:52.669Z,2.87
2023-08-16T04:43:20.968Z,3.23
2023-08-16T04:45:48.398Z,7.53
2023-08-16T04:48:16.115Z,3.57
2023-08-16T04:50:43.252Z,6.13
2023-08-16T04:53:10.743Z,6.90
2023-08-16T04:55:38.007Z,3.83
2023-08-16T04:58:05.595Z,6.17
2023-08-16T05:00:32.940Z,4.93
2023-08-16T05:03:00.511Z,4.03
2023-08-16T05:05:28.943Z,3.87
2023-08-16T05:07:56.271Z,5.97
2023-08-16T05:10:23.822Z,2.40
2023-08-16T05:12:51.340Z,3.33
2023-08-16T05:15:18.526Z,4.40
2023-08-16T05:17:45.742Z,6.57
2023-08-16T05:20:13.573Z,4.00
2023-08-16T05:22:40.803Z,2.90
2023-08-16T05:25:08.685Z,5.97
2023-08-16T05:27:35.844Z,4.10
2023-08-16T05:30:03.759Z,4.27
2023-08-16T05:32:31.335Z,4.30
2023-08-16T05:34:58.613Z,4.90
2023-08-16T05:37:26.577Z,4.97
2023-08-16T05:39:54.023Z,3.83
2023-08-16T05:42:21.418Z,2.57
2023-08-16T05:44:48.649Z,5.93
2023-08-16T05:47:16.073Z,2.23
2023-08-16T05:49:43.336Z,2.40
2023-08-16T05:52:13.536Z,3.57
2023-08-16T05:54:40.675Z,2.97
2023-08-16T05:57:07.816Z,4.73
2023-08-16T05:59:35.308Z,2.33
2023-08-16T06:02:02.809Z,2.93
2023-08-16T06:04:30.363Z,2.50
2023-08-16T06:06:58.030Z,3.17
2023-08-16T06:09:25.469Z,2.47
2023-08-16T06:11:52.624Z,2.37
2023-08-16T06:17:05.565Z,2.97
2023-08-16T06:19:32.739Z,1.80
2023-08-16T06:22:00.641Z,2.83
2023-08-16T06:24:28.289Z,2.20
2023-08-16T06:26:55.674Z,2.40
2023-08-16T06:29:22.882Z,1.70
2023-08-16T06:31:50.051Z,1.60
2023-08-16T06:34:17.878Z,1.73
2023-08-16T06:36:46.135Z,1.80
2023-08-16T06:39:13.303Z,2.10
2023-08-16T06:41:40.554Z,1.70
2023-08-16T06:44:08.639Z,1.60
2023-08-16T06:46:35.909Z,1.20
2023-08-16T06:49:03.235Z,1.73
2023-08-16T06:51:30.749Z,1.37
2023-08-16T06:53:57.894Z,2.10
2023-08-16T06:56:26.143Z,1.43
2023-08-16T06:58:53.283Z,1.50
2023-08-16T07:01:20.462Z,1.50
2023-08-16T07:03:49.726Z,1.77
2023-08-16T07:06:17.371Z,2.13
2023-08-16T07:08:44.983Z,2.50
2023-08-16T07:11:12.216Z,1.30
2023-08-16T07:13:39.638Z,1.00
2023-08-16T07:16:07.203Z,1.37
2023-08-16T07:18:35.033Z,2.10
2023-08-16T07:21:02.220Z,2.20
2023-08-16T07:23:29.428Z,2.10
2023-08-16T07:25:59.936Z,0.60
2023-08-16T07:28:27.658Z,1.50
2023-08-16T07:30:55.518Z,1.10
2023-08-16T07:33:23.953Z,1.40
2023-08-16T07:35:51.645Z,1.87
2023-08-16T07:38:18.840Z,1.10
2023-08-16T07:40:50.112Z,2.07
2023-08-16T07:43:18.955Z,1.33
2023-08-16T07:45:46.091Z,1.27
2023-08-16T07:48:13.815Z,2.17
2023-08-16T07:50:46.175Z,1.60
2023-08-16T07:53:14.172Z,1.80
2023-08-16T07:55:41.399Z,1.70
2023-08-16T07:58:08.992Z,1.77
2023-08-16T08:00:36.161Z,1.87
2023-08-16T08:03:03.708Z,1.43
2023-08-16T08:05:33.009Z,1.07
2023-08-16T08:08:01.836Z,1.63
2023-08-16T08:10:31.766Z,1.47
2023-08-16T08:12:59.713Z,1.17
2023-08-16T08:15:27.007Z,1.60
2023-08-16T08:17:57.708Z,1.80
2023-08-16T08:20:25.004Z,2.23
2023-08-16T08:22:52.560Z,1.37
2023-08-16T08:25:19.885Z,1.73
2023-08-16T08:27:47.224Z,1.50
2023-08-16T08:30:17.360Z,1.43
2023-08-16T08:32:45.196Z,1.90
2023-08-16T08:35:12.445Z,1.40
2023-08-16T08:37:39.607Z,1.47
2023-08-16T08:40:08.064Z,1.63
2023-08-16T08:42:36.039Z,1.37
2023-08-16T08:45:03.985Z,2.00
2023-08-16T08:47:31.763Z,1.03
2023-08-16T08:50:00.101Z,1.53
2023-08-16T08:52:28.028Z,1.70
2023-08-16T08:54:55.297Z,1.43
2023-08-16T08:57:23.685Z,1.10
2023-08-16T08:59:51.545Z,1.00
2023-08-16T09:02:19.414Z,1.20
2023-08-16T09:04:50.031Z,1.90
2023-08-16T09:07:19.032Z,1.23
2023-08-16T09:09:48.142Z,1.30
2023-08-16T09:12:16.269Z,1.03
2023-08-16T09:14:43.744Z,1.20
2023-08-16T09:17:10.975Z,1.63
2023-08-16T09:19:47.869Z,1.57
2023-08-16T09:22:15.668Z,1.50
2023-08-16T09:24:44.563Z,1.00
2023-08-16T09:27:12.126Z,1.30
2023-08-16T09:29:42.316Z,1.50
2023-08-16T09:32:16.961Z,1.20
2023-08-16T09:37:17.066Z,1.10
2023-08-16T09:39:44.674Z,1.70
2023-08-16T09:42:12.115Z,1.63
2023-08-16T09:44:41.930Z,1.50
2023-08-16T09:47:14.275Z,1.80
2023-08-16T09:49:41.840Z,1.20
2023-08-16T09:52:14.274Z,0.90
2023-08-16T09:54:41.928Z,1.53
2023-08-16T09:59:40.614Z,1.50
2023-08-16T10:02:13.643Z,1.57
2023-08-16T10:07:14.331Z,1.60
2023-08-16T10:09:45.621Z,1.43
2023-08-16T10:12:13.324Z,1.30
2023-08-16T10:14:40.600Z,1.30
2023-08-16T10:17:08.054Z,1.13
2023-08-16T10:19:40.293Z,2.10
2023-08-16T10:22:23.286Z,1.50
2023-08-16T10:25:03.990Z,1.80
2023-08-16T10:27:31.903Z,1.57
2023-08-16T10:32:32.171Z,1.23
2023-08-16T10:35:00.239Z,2.07
2023-08-16T10:37:28.100Z,2.20
2023-08-16T10:42:28.630Z,1.80
2023-08-16T10:44:56.544Z,2.00
2023-08-16T10:47:33.144Z,1.00
2023-08-16T10:50:04.894Z,0.80
2023-08-16T10:52:33.785Z,1.17
2023-08-16T10:55:01.149Z,0.87
2023-08-16T10:57:29.078Z,1.23
2023-08-16T11:00:04.168Z,1.23
2023-08-16T11:02:35.429Z,0.77
2023-08-16T11:05:03.251Z,1.50
2023-08-16T11:07:30.870Z,0.70
2023-08-16T11:10:01.918Z,0.90
2023-08-16T11:12:32.751Z,0.67
2023-08-16T11:15:00.209Z,1.13
2023-08-16T11:17:28.544Z,0.50
2023-08-16T11:19:57.255Z,0.97
2023-08-16T11:22:25.795Z,1.30
2023-08-16T11:24:53.944Z,0.80
2023-08-16T11:27:22.673Z,1.00
2023-08-16T11:29:50.991Z,1.20
2023-08-16T11:32:29.701Z,1.20
2023-08-16T11:34:57.391Z,1.03
2023-08-16T11:37:25.261Z,0.83
2023-08-16T11:40:02.201Z,0.90
2023-08-16T11:42:29.898Z,0.90
2023-08-16T11:44:58.199Z,1.30
2023-08-16T11:47:25.709Z,1.30
2023-08-16T11:49:53.364Z,1.43
2023-08-16T11:52:23.979Z,1.37
2023-08-16T11:55:06.548Z,1.40
2023-08-16T11:57:46.368Z,1.10
2023-08-16T12:00:16.607Z,1.17
2023-08-16T12:02:45.323Z,1.33
2023-08-16T12:05:12.895Z,1.40
2023-08-16T12:07:52.529Z,1.37
2023-08-16T12:10:28.133Z,1.53
2023-08-16T12:12:56.163Z,1.30
2023-08-16T12:15:24.380Z,1.10
2023-08-16T12:17:52.115Z,1.27
2023-08-16T12:20:19.504Z,1.20
2023-08-16T12:22:47.263Z,2.60
2023-08-16T12:25:14.445Z,1.23
2023-08-16T12:27:41.606Z,1.43
2023-08-16T12:30:09.166Z,1.13
2023-08-16T12:32:36.596Z,0.97
2023-08-16T12:35:03.970Z,0.87
2023-08-16T12:37:32.896Z,1.30
2023-08-16T12:40:03.376Z,1.20
2023-08-16T12:42:30.530Z,1.20
2023-08-16T12:44:57.739Z,1.50
2023-08-16T12:47:25.257Z,1.23
2023-08-16T12:49:52.880Z,1.23
2023-08-16T12:52:21.322Z,1.10
2023-08-16T12:54:48.490Z,1.33
2023-08-16T12:57:25.602Z,0.93
2023-08-16T12:59:54.351Z,1.30
2023-08-16T13:02:36.540Z,1.10
2023-08-16T13:10:23.221Z,1.50
2023-08-16T13:18:21.353Z,1.17
2023-08-16T13:23:13.529Z,1.33
2023-08-16T13:28:19.530Z,0.87
2023-08-16T13:30:52.456Z,1.23
2023-08-16T13:33:43.186Z,1.23
2023-08-16T13:36:22.835Z,1.03
2023-08-16T13:38:51.245Z,1.03
2023-08-16T13:41:24.970Z,1.07
2023-08-16T13:44:17.648Z,1.10
2023-08-16T13:46:40.550Z,1.20
2023-08-16T13:49:08.343Z,1.80
2023-08-16T13:51:35.504Z,1.20
2023-08-16T13:54:02.640Z,1.47
2023-08-16T13:56:39.404Z,1.07
2023-08-16T13:59:16.004Z,1.50
2023-08-16T14:01:44.472Z,1.60
2023-08-16T14:04:12.280Z,1.20
2023-08-16T14:06:39.531Z,1.60
2023-08-16T14:09:06.921Z,1.63
2023-08-16T14:11:34.094Z,1.43
2023-08-16T14:14:01.774Z,1.17
2023-08-16T14:16:29.070Z,1.20
2023-08-16T14:18:58.003Z,1.03
2023-08-16T14:21:25.384Z,1.30
2023-08-16T14:23:55.889Z,1.20
2023-08-16T14:26:23.547Z,1.03
2023-08-16T14:28:50.898Z,1.13
2023-08-16T14:31:18.083Z,1.50
2023-08-16T14:33:45.469Z,1.47
2023-08-16T14:36:12.713Z,1.10
2023-08-16T14:38:50.209Z,1.13
2023-08-16T14:41:21.994Z,1.50
2023-08-16T14:43:49.294Z,1.40
2023-08-16T14:46:17.401Z,1.30
2023-08-16T14:48:44.665Z,1.53
2023-08-16T14:51:12.386Z,1.60
2023-08-16T14:53:39.507Z,1.53
2023-08-16T14:56:07.426Z,1.33
2023-08-16T14:58:38.006Z,1.40
2023-08-16T15:01:05.149Z,1.27
2023-08-16T15:03:32.857Z,1.17
2023-08-16T15:06:02.411Z,1.73
2023-08-16T15:08:30.029Z,1.60
2023-08-16T15:11:01.558Z,1.57
2023-08-16T15:13:29.226Z,1.30
2023-08-16T15:15:57.349Z,1.47
2023-08-16T15:18:25.112Z,1.57
2023-08-16T15:20:52.336Z,1.07
2023-08-16T15:23:24.173Z,1.93
2023-08-16T15:25:51.796Z,1.10
2023-08-16T15:28:19.200Z,1.17
2023-08-16T15:30:46.447Z,1.10
2023-08-16T15:33:15.460Z,0.87
2023-08-16T15:35:45.942Z,1.33
2023-08-16T15:38:33.048Z,1.07
2023-08-16T15:43:48.811Z,1.40
2023-08-16T15:46:16.039Z,1.30
2023-08-16T15:48:43.390Z,1.43
2023-08-16T15:51:10.875Z,1.50
2023-08-16T15:53:38.019Z,1.63
2023-08-16T15:56:07.203Z,1.40
2023-08-16T15:58:34.509Z,1.08
2023-08-16T16:01:03.011Z,1.35
2023-08-16T16:03:31.507Z,1.40
2023-08-16T16:05:59.487Z,1.52
2023-08-16T16:08:30.054Z,1.13
2023-08-16T16:10:57.548Z,1.48
2023-08-16T16:13:24.928Z,1.27
2023-08-16T16:15:52.220Z,1.75
2023-08-16T16:18:21.030Z,1.92
2023-08-16T16:20:48.375Z,1.13
2023-08-16T16:23:15.643Z,1.30
2023-08-16T16:25:43.082Z,1.33
2023-08-16T16:28:10.337Z,1.23
2023-08-16T16:30:37.914Z,1.30
2023-08-16T16:33:08.896Z,1.43
2023-08-16T16:35:36.570Z,1.20
2023-08-16T16:38:03.846Z,1.50
2023-08-16T16:40:31.507Z,1.20
2023-08-16T16:42:58.668Z,1.70
2023-08-16T16:45:26.074Z,1.27
2023-08-16T16:47:53.365Z,1.60
2023-08-16T16:50:20.756Z,1.23
2023-08-16T16:52:48.237Z,1.20
2023-08-16T16:55:15.833Z,1.43
2023-08-16T16:57:43.358Z,1.70
2023-08-16T17:00:11.562Z,1.57
2023-08-16T17:02:38.777Z,1.80
2023-08-16T17:05:06.514Z,1.30
2023-08-16T17:07:33.816Z,1.33
2023-08-16T17:10:01.007Z,2.17
2023-08-16T17:12:28.667Z,1.43
2023-08-16T17:14:59.844Z,1.50
2023-08-16T17:17:27.425Z,1.60
2023-08-16T17:19:55.321Z,1.43
2023-08-16T17:22:22.583Z,1.53
2023-08-16T17:24:50.655Z,1.27
2023-08-16T17:27:17.924Z,1.57
2023-08-16T17:29:45.080Z,1.10
2023-08-16T17:32:12.438Z,0.83
2023-08-16T17:34:39.623Z,1.30
2023-08-16T17:37:07.200Z,1.50
2023-08-16T17:39:34.340Z,1.97
2023-08-16T17:42:02.677Z,1.50
2023-08-16T17:44:29.877Z,1.37
2023-08-16T17:46:57.692Z,1.83
2023-08-16T17:49:24.871Z,2.10
2023-08-16T17:51:52.111Z,1.67
2023-08-16T17:54:19.255Z,1.20
2023-08-16T17:56:46.504Z,1.27
2023-08-16T17:59:14.071Z,1.70
2023-08-16T18:01:41.554Z,1.80
2023-08-16T18:04:08.703Z,1.50
2023-08-16T18:06:35.872Z,1.57
2023-08-16T18:09:03.463Z,1.73
2023-08-16T18:11:30.640Z,1.50
2023-08-16T18:13:58.048Z,2.17
2023-08-16T18:16:25.730Z,1.67
2023-08-16T18:18:53.299Z,1.40
2023-08-16T18:21:20.459Z,2.00
2023-08-16T18:26:34.766Z,2.20
2023-08-16T18:29:01.994Z,1.57
2023-08-16T18:31:29.445Z,2.50
2023-08-16T18:33:56.598Z,1.10
2023-08-16T18:36:23.858Z,1.37
2023-08-16T18:38:51.042Z,1.60
2023-08-16T18:41:18.714Z,1.73
2023-08-16T18:43:45.845Z,1.30
2023-08-16T18:46:13.063Z,1.20
2023-08-16T18:48:40.870Z,2.13
2023-08-16T18:51:08.032Z,1.90
2023-08-16T18:53:36.195Z,2.67
2023-08-16T18:56:03.749Z,1.43
2023-08-16T18:58:30.926Z,1.93
2023-08-16T19:00:58.634Z,2.60
2023-08-16T19:03:27.296Z,1.30
2023-08-16T19:05:55.316Z,2.10
2023-08-16T19:08:23.086Z,2.20
2023-08-16T19:10:50.474Z,1.40
2023-08-16T19:13:19.982Z,1.60
2023-08-16T19:15:48.708Z,2.27
2023-08-16T19:18:15.940Z,2.00
2023-08-16T19:20:43.140Z,1.90
2023-08-16T19:23:10.637Z,1.87
2023-08-16T19:25:37.774Z,2.50
2023-08-16T19:28:05.227Z,2.17
2023-08-16T19:30:32.492Z,2.10
2023-08-16T19:32:59.793Z,1.83
2023-08-16T19:35:28.029Z,1.40
2023-08-16T19:37:55.451Z,0.80
2023-08-16T19:40:23.083Z,0.57
2023-08-16T19:42:50.749Z,0.43
2023-08-16T19:45:18.314Z,0.53
2023-08-16T19:47:45.532Z,0.37
2023-08-16T19:50:22.969Z,0.50
2023-08-16T19:52:51.360Z,0.60
2023-08-16T19:55:18.623Z,0.60
2023-08-16T19:57:46.229Z,0.90
2023-08-16T20:00:14.114Z,0.57
2023-08-16T20:05:30.236Z,0.60
2023-08-16T20:07:57.823Z,0.33
2023-08-16T20:10:24.963Z,0.40
2023-08-16T20:12:52.813Z,0.50
2023-08-16T20:15:20.113Z,0.80
2023-08-16T20:17:47.399Z,0.53
2023-08-16T20:20:14.618Z,0.30
2023-08-16T20:22:43.967Z,0.50
2023-08-16T20:25:11.152Z,0.23
2023-08-16T20:27:38.950Z,0.50
2023-08-16T20:30:06.576Z,0.50
2023-08-16T20:32:33.859Z,0.37
2023-08-16T20:35:01.655Z,0.60
2023-08-16T20:37:29.606Z,1.07
2023-08-16T20:39:58.007Z,0.57
2023-08-16T20:42:35.964Z,0.60
2023-08-16T20:45:04.365Z,0.60
2023-08-16T20:47:31.988Z,0.77
2023-08-16T20:50:00.002Z,0.30
2023-08-16T20:52:27.426Z,0.53
2023-08-16T20:54:56.715Z,1.40
2023-08-16T20:57:24.801Z,0.77
2023-08-16T20:59:52.628Z,0.37
2023-08-16T21:02:23.413Z,0.30
2023-08-16T21:04:51.027Z,0.77
2023-08-16T21:07:18.219Z,1.27
2023-08-16T21:09:45.568Z,0.60
2023-08-16T21:12:12.779Z,0.30
2023-08-16T21:14:40.774Z,0.47
2023-08-16T21:17:08.416Z,0.43
2023-08-16T21:19:35.737Z,0.30
2023-08-16T21:22:03.173Z,0.20
2023-08-16T21:24:30.338Z,0.87
2023-08-16T21:26:58.190Z,0.87
2023-08-16T21:29:25.385Z,0.70
2023-08-16T21:31:53.044Z,0.87
2023-08-16T21:34:20.225Z,0.40
2023-08-16T21:36:47.826Z,0.30
2023-08-16T21:39:15.420Z,0.50
2023-08-16T21:41:42.637Z,0.70
2023-08-16T21:44:09.894Z,2.00
2023-08-16T21:46:37.561Z,0.60
2023-08-16T21:49:05.055Z,0.50
2023-08-16T21:51:33.837Z,0.53
2023-08-16T21:54:01.013Z,0.80
2023-08-16T21:56:28.195Z,0.33
2023-08-16T21:58:55.361Z,0.30
2023-08-16T22:01:22.963Z,0.73
2023-08-16T22:03:50.601Z,0.50
2023-08-16T22:06:17.868Z,0.70
2023-08-16T22:08:45.440Z,0.30
2023-08-16T22:11:12.799Z,0.90
2023-08-16T22:13:39.970Z,0.30
2023-08-16T22:16:07.541Z,0.20
2023-08-16T22:18:35.125Z,0.77
2023-08-16T22:21:04.591Z,0.50
2023-08-16T22:23:33.796Z,0.67
2023-08-16T22:26:00.981Z,0.57
2023-08-16T22:28:28.195Z,0.30
2023-08-16T22:30:55.723Z,0.30
2023-08-16T22:33:23.823Z,0.60
2023-08-16T22:35:51.440Z,1.23
2023-08-16T22:38:20.971Z,0.93
2023-08-16T22:40:48.493Z,0.77
2023-08-16T22:43:15.704Z,0.30
2023-08-16T22:45:43.877Z,0.60
2023-08-16T22:48:11.074Z,0.73
2023-08-16T22:50:38.251Z,0.87
2023-08-16T22:53:06.851Z,0.40
2023-08-16T22:55:34.145Z,0.53
2023-08-16T22:58:01.873Z,0.90
2023-08-16T23:00:29.112Z,0.67
2023-08-16T23:02:56.333Z,0.40
2023-08-16T23:05:23.949Z,0.53
2023-08-16T23:07:52.380Z,0.90
2023-08-16T23:10:20.040Z,0.30
2023-08-16T23:12:48.042Z,0.47
2023-08-16T23:15:15.190Z,0.60
2023-08-16T23:17:42.468Z,0.30
2023-08-16T23:20:10.244Z,0.40
2023-08-16T23:22:39.030Z,0.73
2023-08-16T23:25:08.900Z,0.43
2023-08-16T23:27:36.569Z,0.30
2023-08-16T23:30:05.950Z,0.50
2023-08-16T23:32:33.922Z,0.60
2023-08-16T23:35:02.234Z,0.30
2023-08-16T23:37:30.043Z,0.40
2023-08-16T23:39:57.262Z,0.83
2023-08-16T23:42:24.902Z,0.33
2023-08-16T23:44:52.546Z,0.80
2023-08-16T23:47:19.773Z,0.60
2023-08-16T23:49:47.418Z,0.50
2023-08-16T23:52:14.696Z,0.70
2023-08-16T23:54:42.464Z,0.87
2023-08-16T23:57:10.286Z,0.50
2023-08-16T23:59:40.981Z,0.60
